createdAt,value
2022-09-14T00:02:12.252Z,97502.06
2022-09-14T00:04:44.625Z,97498.83
2022-09-14T00:07:16.812Z,97495.80
2022-09-14T00:09:49.181Z,97497.08
2022-09-14T00:12:28.669Z,97492.65
2022-09-14T00:19:53.517Z,97499.66
2022-09-14T00:22:45.713Z,97496.20
2022-09-14T00:25:18.509Z,97495.73
2022-09-14T00:32:14.458Z,97486.14
2022-09-14T00:35:10.267Z,97477.81
2022-09-14T00:46:30.278Z,97470.27
2022-09-14T00:53:31.776Z,97475.39
2022-09-14T00:56:04.222Z,97474.27
2022-09-14T00:58:43.017Z,97470.45
2022-09-14T01:01:16.406Z,97465.94
2022-09-14T01:03:55.679Z,97462.38
2022-09-14T01:20:35.440Z,97468.95
2022-09-14T01:32:15.638Z,97457.86
2022-09-14T01:34:50.963Z,97455.42
2022-09-14T01:54:51.218Z,97439.85
2022-09-14T02:06:41.307Z,97428.67
2022-09-14T02:10:32.324Z,97423.30
2022-09-14T02:13:08.277Z,97422.23
2022-09-14T02:26:04.255Z,97412.91
2022-09-14T02:28:41.579Z,97405.86
2022-09-14T03:02:19.358Z,97374.73
2022-09-14T03:04:58.614Z,97375.49
2022-09-14T03:07:31.215Z,97374.05
2022-09-14T03:10:10.956Z,97372.44
2022-09-14T03:12:43.125Z,97372.43
2022-09-14T03:19:45.927Z,97378.34
2022-09-14T03:22:18.112Z,97385.36
2022-09-14T03:24:56.995Z,97379.55
2022-09-14T03:27:29.475Z,97382.41
2022-09-14T03:30:09.932Z,97384.23
2022-09-14T03:37:50.239Z,97398.84
2022-09-14T03:40:29.910Z,97396.91
2022-09-14T03:43:02.376Z,97394.19
2022-09-14T03:45:42.519Z,97395.91
2022-09-14T03:48:15.913Z,97396.84
2022-09-14T03:50:55.053Z,97400.26
2022-09-14T03:53:27.955Z,97403.65
2022-09-14T04:08:05.921Z,97395.04
2022-09-14T04:11:26.007Z,97393.22
2022-09-14T04:27:32.796Z,97389.96
2022-09-14T04:30:05.368Z,97390.41
2022-09-14T04:32:44.782Z,97387.96
2022-09-14T04:35:17.363Z,97375.38
2022-09-14T04:37:56.170Z,97376.27
2022-09-14T04:40:29.039Z,97376.63
2022-09-14T04:43:08.213Z,97378.91
2022-09-14T04:45:41.016Z,97374.77
2022-09-14T04:48:21.011Z,97372.39
2022-09-14T04:50:53.220Z,97377.30
2022-09-14T04:53:32.135Z,97385.40
2022-09-14T04:56:05.949Z,97389.83
2022-09-14T04:58:39.843Z,97389.80
2022-09-14T05:01:14.649Z,97394.22
2022-09-14T05:04:43.384Z,97390.96
2022-09-14T05:07:15.939Z,97390.87
2022-09-14T05:10:20.928Z,97392.47
2022-09-14T05:13:36.439Z,97390.88
2022-09-14T05:16:11.191Z,97389.89
2022-09-14T05:19:48.571Z,97390.83
2022-09-14T05:22:26.298Z,97388.01
2022-09-14T05:25:00.989Z,97385.59
2022-09-14T05:27:40.251Z,97392.23
2022-09-14T05:30:14.281Z,97390.14
2022-09-14T05:38:03.152Z,97394.84
2022-09-14T05:40:42.325Z,97399.65
2022-09-14T05:43:14.629Z,97396.59
2022-09-14T05:45:53.439Z,97392.59
2022-09-14T05:48:25.934Z,97393.54
2022-09-14T05:51:05.822Z,97391.95
2022-09-14T05:58:29.222Z,97395.79
2022-09-14T06:01:41.930Z,97397.59
2022-09-14T06:04:21.302Z,97398.36
2022-09-14T06:07:14.860Z,97397.91
2022-09-14T06:10:42.152Z,97395.23
2022-09-14T06:13:15.503Z,97394.83
2022-09-14T06:15:54.136Z,97396.34
2022-09-14T06:18:26.633Z,97399.79
2022-09-14T06:21:06.125Z,97395.97
2022-09-14T06:41:41.747Z,97407.81
2022-09-14T06:44:49.848Z,97414.99
2022-09-14T06:51:39.708Z,97421.84
2022-09-14T06:55:01.898Z,97421.38
2022-09-14T06:57:34.077Z,97420.58
2022-09-14T07:00:08.603Z,97423.90
2022-09-14T07:03:39.725Z,97429.04
2022-09-14T07:07:01.217Z,97420.14
2022-09-14T07:09:33.305Z,97418.27
2022-09-14T07:16:38.601Z,97425.66
2022-09-14T07:19:14.668Z,97427.91
2022-09-14T07:23:44.036Z,97419.54
2022-09-14T07:26:26.895Z,97412.21
2022-09-14T07:33:49.714Z,97420.95
2022-09-14T07:36:32.719Z,97415.36
2022-09-14T07:44:47.976Z,97412.15
2022-09-14T07:48:15.279Z,97411.70
2022-09-14T07:50:47.726Z,97409.55
2022-09-14T07:53:26.360Z,97414.48
2022-09-14T07:56:01.833Z,97413.77
2022-09-14T07:59:38.544Z,97409.20
2022-09-14T08:03:00.495Z,97399.22
2022-09-14T08:05:45.462Z,97403.23
2022-09-14T08:08:42.959Z,97401.81
2022-09-14T08:11:16.758Z,97402.40
2022-09-14T08:21:44.101Z,97385.61
2022-09-14T08:28:34.004Z,97386.80
2022-09-14T08:31:09.029Z,97391.01
2022-09-14T08:34:36.376Z,97387.16
2022-09-14T08:37:10.903Z,97389.52
2022-09-14T08:48:06.783Z,97384.70
2022-09-14T08:50:38.940Z,97389.56
2022-09-14T08:53:18.313Z,97386.37
2022-09-14T09:00:24.517Z,97387.93
2022-09-14T09:11:57.119Z,97382.64
2022-09-14T09:24:11.143Z,97385.36
2022-09-14T09:31:32.447Z,97381.90
2022-09-14T09:39:28.105Z,97382.02
2022-09-14T09:42:05.482Z,97380.56
2022-09-14T09:45:01.256Z,97379.79
2022-09-14T09:47:39.320Z,97379.45
2022-09-14T09:50:22.075Z,97378.88
2022-09-14T09:52:57.869Z,97381.67
2022-09-14T09:55:36.917Z,97384.58
2022-09-14T09:58:24.010Z,97382.16
2022-09-14T10:01:02.279Z,97385.27
2022-09-14T10:03:37.678Z,97387.98
2022-09-14T10:06:14.936Z,97388.30
2022-09-14T10:08:49.199Z,97386.33
2022-09-14T10:11:37.866Z,97388.64
2022-09-14T10:14:27.349Z,97387.52
2022-09-14T10:17:08.334Z,97386.45
2022-09-14T10:19:40.778Z,97383.95
2022-09-14T10:22:28.993Z,97379.11
2022-09-14T10:25:03.863Z,97377.80
2022-09-14T10:27:43.579Z,97374.77
2022-09-14T10:30:20.304Z,97375.74
2022-09-14T10:32:59.582Z,97375.59
2022-09-14T10:35:41.394Z,97378.36
2022-09-14T10:38:25.850Z,97377.08
2022-09-14T10:41:08.835Z,97372.98
2022-09-14T10:44:00.693Z,97373.30
2022-09-14T10:46:39.360Z,97368.67
2022-09-14T10:49:26.526Z,97370.16
2022-09-14T10:52:07.593Z,97367.14
2022-09-14T10:55:14.096Z,97364.20
2022-09-14T10:57:57.522Z,97358.92
2022-09-14T11:00:41.173Z,97359.96
2022-09-14T11:03:31.121Z,97359.30
2022-09-14T11:06:15.391Z,97361.48
2022-09-14T11:08:52.853Z,97362.15
2022-09-14T11:20:02.948Z,97348.61
2022-09-14T11:22:42.436Z,97348.20
2022-09-14T11:25:19.635Z,97345.93
2022-09-14T11:27:58.794Z,97347.95
2022-09-14T11:30:39.675Z,97346.98
2022-09-14T11:33:18.186Z,97340.00
2022-09-14T11:35:56.220Z,97333.29
2022-09-14T11:38:30.646Z,97331.36
2022-09-14T11:41:10.912Z,97329.55
2022-09-14T11:43:45.027Z,97327.95
2022-09-14T11:46:22.999Z,97327.04
2022-09-14T11:49:03.043Z,97320.77
2022-09-14T11:51:38.394Z,97320.98
2022-09-14T11:54:17.253Z,97321.61
2022-09-14T11:56:53.782Z,97325.21
2022-09-14T11:59:38.699Z,97317.96
2022-09-14T12:02:50.746Z,97315.73
2022-09-14T12:05:44.907Z,97316.10
2022-09-14T13:02:40.825Z,97302.20
2022-09-14T13:05:31.055Z,97299.86
2022-09-14T13:16:55.598Z,97300.85
2022-09-14T13:19:35.689Z,97299.86
2022-09-14T13:26:46.671Z,97298.98
2022-09-14T13:29:18.861Z,97299.92
2022-09-14T13:31:51.293Z,97301.42
2022-09-14T13:34:27.801Z,97292.36
2022-09-14T13:37:00.882Z,97278.06
2022-09-14T13:39:35.751Z,97269.27
2022-09-14T13:42:09.537Z,97267.16
2022-09-14T13:44:45.852Z,97268.52
2022-09-14T13:47:22.797Z,97262.98
2022-09-14T13:49:57.597Z,97259.55
2022-09-14T13:53:00.550Z,97259.80
2022-09-14T13:55:42.236Z,97258.48
2022-09-14T13:58:24.969Z,97256.44
2022-09-14T14:01:02.420Z,97256.71
2022-09-14T14:03:40.255Z,97258.48
2022-09-14T14:06:26.443Z,97259.64
2022-09-14T14:09:02.508Z,97247.37
2022-09-14T14:11:38.204Z,97238.31
2022-09-14T14:14:31.545Z,97241.41
2022-09-14T14:17:36.817Z,97233.83
2022-09-14T14:20:31.215Z,97237.86
2022-09-14T14:23:16.690Z,97244.27
2022-09-14T14:25:54.392Z,97241.15
2022-09-14T14:28:33.488Z,97240.58
2022-09-14T14:31:09.149Z,97238.77
2022-09-14T14:33:48.442Z,97241.93
2022-09-14T14:36:21.059Z,97245.19
2022-09-14T14:38:53.403Z,97246.80
2022-09-14T14:41:25.713Z,97240.27
2022-09-14T14:43:59.275Z,97242.41
2022-09-14T14:46:32.005Z,97241.67
2022-09-14T14:49:05.143Z,97244.87
2022-09-14T14:51:37.794Z,97246.58
2022-09-14T14:54:11.028Z,97246.13
2022-09-14T14:56:44.250Z,97246.48
2022-09-14T14:59:29.524Z,97247.81
2022-09-14T15:02:02.648Z,97250.34
2022-09-14T15:04:34.992Z,97239.30
2022-09-14T15:07:07.572Z,97241.06
2022-09-14T15:10:12.866Z,97244.89
2022-09-14T15:12:51.992Z,97244.02
2022-09-14T15:19:16.912Z,97241.23
2022-09-14T15:25:56.375Z,97234.34
2022-09-14T15:28:28.565Z,97223.70
2022-09-14T15:31:08.094Z,97216.34
2022-09-14T15:38:31.607Z,97219.44
2022-09-14T15:53:53.191Z,97220.34
2022-09-14T15:56:25.389Z,97222.30
2022-09-14T16:08:45.660Z,97215.98
2022-09-14T16:11:18.337Z,97211.79
2022-09-14T16:13:53.284Z,97213.48
2022-09-14T16:22:04.945Z,97201.23
2022-09-14T16:24:44.381Z,97201.52
2022-09-14T16:27:16.651Z,97201.27
2022-09-14T16:29:55.314Z,97203.98
2022-09-14T16:32:27.899Z,97206.08
2022-09-14T16:35:08.525Z,97204.34
2022-09-14T16:37:41.596Z,97203.45
2022-09-14T16:40:15.337Z,97201.95
2022-09-14T16:47:43.006Z,97202.08
2022-09-14T16:54:46.943Z,97197.58
2022-09-14T16:57:19.422Z,97196.88
2022-09-14T16:59:51.552Z,97191.60
2022-09-14T17:03:06.190Z,97190.63
2022-09-14T17:05:45.140Z,97192.36
2022-09-14T17:13:16.959Z,97188.84
2022-09-14T17:20:40.922Z,97188.65
2022-09-14T17:23:20.288Z,97188.73
2022-09-14T17:25:53.010Z,97183.30
2022-09-14T17:28:33.047Z,97184.20
2022-09-14T17:31:09.971Z,97188.16
2022-09-14T17:38:11.083Z,97196.67
2022-09-14T17:40:43.989Z,97191.13
2022-09-14T17:43:23.115Z,97193.70
2022-09-14T17:45:58.117Z,97189.74
2022-09-14T17:49:23.183Z,97180.42
2022-09-14T17:56:46.062Z,97178.08
2022-09-14T17:59:27.497Z,97178.63
2022-09-14T18:02:01.891Z,97182.00
2022-09-14T18:05:24.384Z,97174.95
2022-09-14T18:07:57.199Z,97175.08
2022-09-14T18:10:39.109Z,97178.45
2022-09-14T18:22:57.480Z,97173.18
2022-09-14T18:25:30.778Z,97170.34
2022-09-14T18:28:03.199Z,97177.01
2022-09-14T18:30:43.759Z,97180.23
2022-09-14T18:38:08.465Z,97185.70
2022-09-14T18:40:44.744Z,97184.47
2022-09-14T18:43:20.420Z,97178.90
2022-09-14T18:45:55.661Z,97175.98
2022-09-14T18:48:39.039Z,97178.21
2022-09-14T18:59:59.191Z,97170.80
2022-09-14T19:07:21.391Z,97162.52
2022-09-14T19:10:02.350Z,97161.34
2022-09-14T19:17:27.162Z,97143.91
2022-09-14T19:20:01.888Z,97143.36
2022-09-14T19:24:30.970Z,97135.06
2022-09-14T19:32:14.275Z,97134.52
2022-09-14T19:34:49.584Z,97135.27
2022-09-14T19:38:17.187Z,97128.29
2022-09-14T19:45:04.812Z,97131.22
2022-09-14T19:47:37.092Z,97133.41
2022-09-14T19:50:11.856Z,97126.00
2022-09-14T19:52:45.964Z,97124.77
2022-09-14T19:55:18.239Z,97117.80
2022-09-14T19:57:51.259Z,97119.31
2022-09-14T20:00:23.810Z,97112.53
2022-09-14T20:02:56.163Z,97113.36
2022-09-14T20:05:28.369Z,97109.98
2022-09-14T20:08:00.550Z,97107.62
2022-09-14T20:10:32.685Z,97112.80
2022-09-14T20:13:04.902Z,97109.34
2022-09-14T20:15:37.510Z,97108.20
2022-09-14T20:18:09.795Z,97105.32
2022-09-14T20:20:42.762Z,97110.86
2022-09-14T20:23:15.220Z,97113.45
2022-09-14T20:25:47.388Z,97114.05
2022-09-14T20:28:20.140Z,97118.89
2022-09-14T20:31:01.780Z,97124.91
2022-09-14T20:33:37.162Z,97129.56
2022-09-14T20:36:11.638Z,97127.66
2022-09-14T20:38:50.210Z,97128.90
2022-09-14T20:41:24.123Z,97127.67
2022-09-14T20:43:57.071Z,97126.19
2022-09-14T20:46:35.067Z,97126.92
2022-09-14T20:49:11.391Z,97126.71
2022-09-14T20:51:44.212Z,97123.63
2022-09-14T20:54:18.575Z,97122.63
2022-09-14T20:56:52.901Z,97116.19
2022-09-14T20:59:25.977Z,97111.80
2022-09-14T21:02:00.284Z,97110.52
2022-09-14T21:04:35.232Z,97108.00
2022-09-14T21:07:07.704Z,97104.39
2022-09-14T21:09:40.004Z,97106.13
2022-09-14T21:12:14.153Z,97097.92
2022-09-14T21:14:48.065Z,97101.44
2022-09-14T21:17:21.863Z,97103.80
2022-09-14T21:19:54.185Z,97111.83
2022-09-14T21:22:26.483Z,97110.61
2022-09-14T21:24:58.876Z,97110.14
2022-09-14T21:27:31.532Z,97098.74
2022-09-14T21:30:14.178Z,97090.89
2022-09-14T21:32:50.501Z,97089.39
2022-09-14T21:35:22.946Z,97082.20
2022-09-14T21:37:55.365Z,97083.39
2022-09-14T21:40:27.542Z,97090.69
2022-09-14T21:42:59.904Z,97087.60
2022-09-14T21:45:32.236Z,97074.92
2022-09-14T21:48:05.093Z,97071.27
2022-09-14T21:50:37.463Z,97072.71
2022-09-14T21:53:10.106Z,97070.94
2022-09-14T21:55:42.467Z,97063.33
2022-09-14T21:58:14.656Z,97056.67
2022-09-14T22:00:49.571Z,97059.05
2022-09-14T22:03:21.651Z,97062.22
2022-09-14T22:06:00.072Z,97060.25
2022-09-14T22:08:34.181Z,97055.14
2022-09-14T22:11:07.541Z,97049.63
2022-09-14T22:13:42.496Z,97042.84
2022-09-14T22:16:18.277Z,97032.23
2022-09-14T22:18:53.045Z,97033.39
2022-09-14T22:21:27.216Z,97035.63
2022-09-14T22:24:01.782Z,97026.73
2022-09-14T22:26:35.224Z,97026.80
2022-09-14T22:29:08.882Z,97028.30
2022-09-14T22:31:42.896Z,97025.81
2022-09-14T22:34:16.357Z,97025.69
2022-09-14T22:36:48.793Z,97033.38
2022-09-14T22:39:21.007Z,97037.58
2022-09-14T22:41:54.442Z,97037.23
2022-09-14T22:44:26.604Z,97037.46
2022-09-14T22:47:01.223Z,97030.54
2022-09-14T22:49:33.987Z,97034.11
2022-09-14T22:52:06.586Z,97032.17
2022-09-14T22:54:38.959Z,97030.55
2022-09-14T22:57:14.553Z,97027.63
2022-09-14T22:59:46.707Z,97021.18
2022-09-14T23:02:21.418Z,97014.39
2022-09-14T23:04:56.787Z,97012.06
2022-09-14T23:07:29.070Z,97008.91
2022-09-14T23:10:01.394Z,97006.64
2022-09-14T23:12:33.739Z,97009.39
2022-09-14T23:15:09.763Z,97008.39
2022-09-14T23:17:42.168Z,97004.74
2022-09-14T23:20:14.399Z,97003.27
2022-09-14T23:22:46.662Z,96999.11
2022-09-14T23:25:18.790Z,96997.35
2022-09-14T23:27:50.884Z,96992.78
2022-09-14T23:30:23.066Z,96987.14
2022-09-14T23:32:55.223Z,96983.24
2022-09-14T23:35:28.529Z,96977.14
2022-09-14T23:38:02.580Z,96978.77
2022-09-14T23:40:34.740Z,96968.13
2022-09-14T23:43:07.376Z,96962.08
2022-09-14T23:45:39.596Z,96955.70
2022-09-14T23:48:14.956Z,96954.14
2022-09-14T23:50:47.480Z,96949.49
2022-09-14T23:53:20.502Z,96947.89
2022-09-14T23:55:52.904Z,96955.55
2022-09-14T23:58:27.944Z,96956.04
